Time;durP1;ratioP1;P1;durP2;ratioP2;P2;SDS_P1;SDS_P2;PMS_P1;PMS_P2;Temp;Humidity;BMP_temperature;BMP_pressure;BME280_temperature;BME280_humidity;BME280_pressure;Samples;Min_cycle;Max_cycle;Signal;HPM_P1;HPM_P2
2022/09/22 00:01:53;;;;;;;4.70;1.20;;;16.00;59.40;;;;;;5055615;28;20459;-68
2022/09/22 00:04:19;;;;;;;2.63;0.77;;;16.00;59.50;;;;;;5055420;28;20029;-71
2022/09/22 00:06:47;;;;;;;1.10;0.73;;;16.00;60.10;;;;;;5055422;28;20052;-68
2022/09/22 00:09:16;;;;;;;2.40;0.70;;;16.00;59.80;;;;;;5055129;28;20053;-68
2022/09/22 00:11:44;;;;;;;1.13;0.70;;;15.90;60.20;;;;;;5054979;28;20028;-68
2022/09/22 00:14:19;;;;;;;1.98;0.80;;;16.00;60.10;;;;;;5054482;28;20030;-68
2022/09/22 00:17:03;;;;;;;4.78;1.00;;;15.90;59.90;;;;;;5055206;28;20025;-74
2022/09/22 00:19:33;;;;;;;3.92;0.65;;;15.90;59.60;;;;;;5054926;28;20107;-68
2022/09/22 00:21:59;;;;;;;1.50;0.70;;;15.90;60.00;;;;;;5055115;28;20056;-68
2022/09/22 00:24:26;;;;;;;4.13;0.90;;;15.90;60.00;;;;;;5054975;28;20025;-68
2022/09/22 00:26:56;;;;;;;1.50;0.80;;;15.90;60.40;;;;;;5054985;28;20036;-68
2022/09/22 00:29:22;;;;;;;2.63;0.80;;;15.90;60.30;;;;;;5055004;28;20033;-70
2022/09/22 00:31:49;;;;;;;1.60;0.80;;;15.90;60.30;;;;;;5054888;28;20025;-68
2022/09/22 00:34:17;;;;;;;2.33;1.10;;;15.90;60.50;;;;;;5054737;28;20028;-68
2022/09/22 00:36:43;;;;;;;5.53;0.75;;;15.90;60.40;;;;;;5054876;28;20119;-68
2022/09/22 00:39:10;;;;;;;1.55;0.90;;;15.90;59.90;;;;;;5054676;28;20031;-68
2022/09/22 00:41:39;;;;;;;3.65;0.90;;;15.80;60.30;;;;;;5054613;28;20374;-68
2022/09/22 00:44:19;;;;;;;1.17;0.77;;;15.80;60.40;;;;;;5054494;28;20112;-68
2022/09/22 00:46:50;;;;;;;1.38;0.75;;;15.80;60.60;;;;;;5054532;28;20583;-68
2022/09/22 00:49:20;;;;;;;4.80;0.70;;;15.80;60.60;;;;;;5054215;28;20025;-68
2022/09/22 00:51:46;;;;;;;3.25;0.90;;;15.80;60.70;;;;;;5054306;28;20395;-74
2022/09/22 00:54:16;;;;;;;1.85;0.90;;;15.70;60.60;;;;;;5054286;28;20021;-68
2022/09/22 00:56:56;;;;;;;1.92;0.85;;;15.70;60.60;;;;;;5054104;28;20025;-68
2022/09/22 00:59:24;;;;;;;1.92;1.13;;;15.70;60.20;;;;;;5051386;28;20056;-68
2022/09/22 01:01:51;;;;;;;2.00;0.90;;;15.60;60.30;;;;;;5051065;28;20028;-68
2022/09/22 01:04:17;;;;;;;1.63;0.88;;;15.60;60.60;;;;;;5052956;28;20021;-68
2022/09/22 01:06:44;;;;;;;1.80;0.80;;;15.60;60.80;;;;;;5053951;28;20427;-68
2022/09/22 01:09:11;;;;;;;3.50;1.05;;;15.60;60.90;;;;;;5053789;28;20390;-68
2022/09/22 01:11:38;;;;;;;1.10;0.60;;;15.60;61.10;;;;;;5053917;28;20025;-68
2022/09/22 01:14:19;;;;;;;4.13;0.82;;;15.60;61.10;;;;;;5053994;28;20029;-68
2022/09/22 01:17:20;;;;;;;2.50;1.30;;;15.60;61.20;;;;;;5053959;28;20483;-68
2022/09/22 01:20:04;;;;;;;1.90;0.85;;;15.50;61.30;;;;;;5037674;28;20029;-67
2022/09/22 01:23:07;;;;;;;2.45;1.00;;;15.50;61.60;;;;;;5054060;28;20025;-73
2022/09/22 01:25:50;;;;;;;3.10;1.00;;;15.50;61.60;;;;;;5053956;28;20119;-69
2022/09/22 01:28:35;;;;;;;3.35;1.08;;;15.50;62.00;;;;;;5053562;28;20434;-68
2022/09/22 01:31:25;;;;;;;0.90;0.73;;;15.40;61.80;;;;;;5053550;28;20369;-68
2022/09/22 01:33:59;;;;;;;1.77;0.70;;;15.40;62.10;;;;;;5053532;28;20032;-68
2022/09/22 01:36:51;;;;;;;1.65;0.90;;;15.40;62.10;;;;;;5053515;28;20024;-68
2022/09/22 01:39:20;;;;;;;2.45;0.85;;;15.40;62.10;;;;;;5047862;28;20090;-74
2022/09/22 01:41:54;;;;;;;3.00;0.93;;;15.40;61.90;;;;;;5053473;28;20479;-68
2022/09/22 01:44:45;;;;;;;1.27;0.88;;;15.30;62.20;;;;;;5053533;28;20025;-73
2022/09/22 01:47:18;;;;;;;2.92;1.02;;;15.30;62.00;;;;;;5052578;28;20103;-68
2022/09/22 01:49:50;;;;;;;2.92;0.80;;;15.30;62.30;;;;;;5052577;28;20048;-67
2022/09/22 01:52:20;;;;;;;1.05;0.77;;;15.30;62.60;;;;;;5053101;28;20423;-68
2022/09/22 01:54:55;;;;;;;4.38;1.00;;;15.20;62.50;;;;;;5052866;28;20044;-70
2022/09/22 01:57:43;;;;;;;6.35;1.00;;;15.20;62.20;;;;;;5052715;28;20017;-68
2022/09/22 02:00:09;;;;;;;2.38;1.00;;;15.20;62.40;;;;;;5052571;28;20418;-68
2022/09/22 02:02:49;;;;;;;1.33;0.73;;;15.20;62.40;;;;;;5052285;28;20117;-68
2022/09/22 02:05:22;;;;;;;2.00;0.90;;;15.20;62.00;;;;;;5052929;28;20036;-68
2022/09/22 02:07:52;;;;;;;1.00;0.90;;;15.20;61.80;;;;;;5052995;28;20021;-68
2022/09/22 02:10:23;;;;;;;1.40;0.90;;;15.20;61.90;;;;;;5052771;28;20426;-70
2022/09/22 02:12:49;;;;;;;2.00;1.05;;;15.20;62.10;;;;;;5053187;28;20083;-69
2022/09/22 02:18:08;;;;;;;2.83;1.00;;;15.10;62.60;;;;;;5052712;28;20127;-68
2022/09/22 02:20:34;;;;;;;2.38;1.00;;;15.10;62.30;;;;;;5052237;28;20056;-68
2022/09/22 02:22:59;;;;;;;1.17;0.82;;;15.10;62.10;;;;;;5052457;28;20425;-68
2022/09/22 02:25:26;;;;;;;2.80;0.90;;;15.10;62.30;;;;;;5052259;28;20064;-72
2022/09/22 02:27:55;;;;;;;2.40;0.90;;;15.10;62.10;;;;;;5051887;28;20497;-68
2022/09/22 02:30:22;;;;;;;2.13;0.75;;;15.10;62.10;;;;;;5052318;28;20556;-68
2022/09/22 02:32:51;;;;;;;2.25;1.00;;;15.00;61.60;;;;;;5052259;28;20079;-68
2022/09/22 02:35:17;;;;;;;3.15;1.10;;;15.00;61.30;;;;;;5052370;28;20029;-74
2022/09/22 02:37:49;;;;;;;5.22;0.90;;;15.00;61.90;;;;;;5052005;28;20087;-68
2022/09/22 02:40:31;;;;;;;1.17;0.73;;;15.00;61.80;;;;;;5052262;28;20036;-68
2022/09/22 02:43:14;;;;;;;1.85;0.98;;;15.00;61.90;;;;;;5052336;28;20071;-67
2022/09/22 02:45:59;;;;;;;1.02;0.82;;;14.90;62.20;;;;;;5052231;28;20029;-73
2022/09/22 02:48:31;;;;;;;4.03;1.00;;;14.90;62.50;;;;;;5052028;28;20104;-68
2022/09/22 02:50:57;;;;;;;2.17;0.88;;;14.90;62.50;;;;;;5051506;28;20048;-68
2022/09/22 02:53:22;;;;;;;2.13;0.98;;;14.90;62.90;;;;;;5051882;28;20048;-69
2022/09/22 02:55:48;;;;;;;2.75;1.00;;;14.80;62.50;;;;;;5052157;28;20068;-68
2022/09/22 02:58:16;;;;;;;4.95;1.00;;;14.80;62.60;;;;;;5052099;28;20021;-68
2022/09/22 03:00:43;;;;;;;2.60;0.85;;;14.80;62.20;;;;;;5051904;28;20033;-68
2022/09/22 03:03:10;;;;;;;1.98;1.05;;;14.80;62.90;;;;;;5051583;28;20032;-68
2022/09/22 03:05:36;;;;;;;2.65;1.02;;;14.80;62.00;;;;;;5051945;28;20029;-68
2022/09/22 03:08:02;;;;;;;1.60;1.00;;;14.80;62.10;;;;;;5051836;28;20025;-68
2022/09/22 03:10:28;;;;;;;1.70;0.90;;;14.70;62.90;;;;;;5052223;28;20123;-73
2022/09/22 03:12:56;;;;;;;1.88;0.93;;;14.70;62.80;;;;;;5052034;28;20052;-69
2022/09/22 03:15:22;;;;;;;3.60;1.00;;;14.70;62.60;;;;;;5051571;28;20029;-74
2022/09/22 03:17:47;;;;;;;1.90;1.10;;;14.70;62.50;;;;;;5052076;28;20027;-68
2022/09/22 03:20:13;;;;;;;3.55;1.00;;;14.70;62.40;;;;;;5051765;28;20065;-72
2022/09/22 03:22:39;;;;;;;2.05;0.85;;;14.70;62.20;;;;;;5051632;28;20026;-68
2022/09/22 03:25:06;;;;;;;1.00;0.80;;;14.70;61.80;;;;;;5051886;28;20075;-68
2022/09/22 03:27:32;;;;;;;3.15;0.88;;;14.70;61.60;;;;;;5051879;28;20021;-68
2022/09/22 03:29:58;;;;;;;1.58;0.70;;;14.60;61.70;;;;;;5051456;28;20510;-68
2022/09/22 03:32:23;;;;;;;2.90;1.00;;;14.60;61.80;;;;;;5052142;28;20542;-68
2022/09/22 03:34:49;;;;;;;1.45;0.85;;;14.60;61.90;;;;;;5051592;28;20098;-68
2022/09/22 03:37:15;;;;;;;1.08;0.80;;;14.60;62.30;;;;;;5051732;28;20463;-68
2022/09/22 03:39:41;;;;;;;1.35;0.93;;;14.60;61.80;;;;;;5051528;28;20038;-71
2022/09/22 03:42:07;;;;;;;2.53;1.00;;;14.60;62.00;;;;;;5051764;28;20034;-68
2022/09/22 03:44:33;;;;;;;5.72;1.05;;;14.60;62.40;;;;;;5051460;28;20119;-68
2022/09/22 03:46:59;;;;;;;3.80;1.00;;;14.60;62.60;;;;;;5051211;28;20036;-67
2022/09/22 03:49:25;;;;;;;6.80;1.10;;;14.50;63.70;;;;;;5051762;28;20104;-68
2022/09/22 03:51:52;;;;;;;2.10;1.10;;;14.50;63.30;;;;;;5055151;28;20049;-68
2022/09/22 03:54:17;;;;;;;1.63;0.82;;;14.40;63.10;;;;;;5055321;28;20024;-68
2022/09/22 03:56:43;;;;;;;6.05;1.15;;;14.40;63.00;;;;;;5055297;28;20029;-74
2022/09/22 03:59:10;;;;;;;1.63;0.90;;;14.40;63.40;;;;;;5054820;28;20123;-69
2022/09/22 04:01:36;;;;;;;2.42;1.05;;;14.40;63.50;;;;;;5055164;28;20124;-68
2022/09/22 04:04:02;;;;;;;1.67;1.00;;;14.40;63.10;;;;;;5055258;28;20029;-68
2022/09/22 04:06:28;;;;;;;1.92;1.00;;;14.40;63.10;;;;;;5054971;28;20055;-68
2022/09/22 04:08:54;;;;;;;5.55;1.10;;;14.30;63.00;;;;;;5054975;28;20439;-68
2022/09/22 04:11:20;;;;;;;1.80;1.30;;;14.30;62.90;;;;;;5054563;28;20041;-68
2022/09/22 04:13:46;;;;;;;1.20;0.93;;;14.30;63.10;;;;;;5054718;28;20397;-68
2022/09/22 04:16:12;;;;;;;3.85;1.08;;;14.30;63.40;;;;;;5055357;28;20017;-68
2022/09/22 04:18:40;;;;;;;4.40;1.00;;;14.20;63.20;;;;;;5054896;28;20048;-68
2022/09/22 04:21:07;;;;;;;1.73;0.90;;;14.20;63.00;;;;;;5054691;28;20041;-68
2022/09/22 04:23:33;;;;;;;2.47;1.00;;;14.20;63.00;;;;;;5054522;28;20032;-69
2022/09/22 04:26:00;;;;;;;1.95;1.00;;;14.20;62.80;;;;;;5055352;28;20098;-70
2022/09/22 04:28:26;;;;;;;1.60;0.80;;;14.20;62.00;;;;;;5054707;28;20017;-67
2022/09/22 04:30:51;;;;;;;1.63;0.90;;;14.20;62.50;;;;;;5054619;28;20037;-68
2022/09/22 04:33:17;;;;;;;2.13;1.00;;;14.20;62.60;;;;;;5054266;28;20498;-73
2022/09/22 04:35:43;;;;;;;1.25;0.82;;;14.20;62.70;;;;;;5054432;28;20438;-75
2022/09/22 04:38:09;;;;;;;4.68;1.00;;;14.20;62.50;;;;;;5054391;28;20017;-74
2022/09/22 04:40:36;;;;;;;3.58;0.82;;;14.20;62.60;;;;;;5054324;28;20029;-68
2022/09/22 04:43:01;;;;;;;2.20;1.10;;;14.20;62.60;;;;;;5054193;28;20021;-68
2022/09/22 04:45:27;;;;;;;2.60;1.00;;;14.10;63.30;;;;;;5054387;28;20029;-68
2022/09/22 04:47:53;;;;;;;4.68;1.10;;;14.10;63.10;;;;;;5053995;28;20429;-68
2022/09/22 04:50:21;;;;;;;4.07;1.23;;;14.10;63.10;;;;;;5054126;28;20427;-68
2022/09/22 04:52:53;;;;;;;1.83;1.10;;;14.10;63.10;;;;;;5053938;28;20392;-68
2022/09/22 04:55:20;;;;;;;2.05;0.88;;;14.00;63.00;;;;;;5054103;28;20033;-72
2022/09/22 04:57:50;;;;;;;3.42;1.00;;;14.00;63.10;;;;;;5054246;28;20426;-69
2022/09/22 05:00:16;;;;;;;4.72;1.00;;;14.00;62.90;;;;;;5053874;28;20025;-68
2022/09/22 05:02:42;;;;;;;2.72;1.25;;;14.00;63.20;;;;;;5054116;28;20029;-68
2022/09/22 05:05:08;;;;;;;2.53;1.25;;;13.90;63.60;;;;;;5053884;28;20032;-68
2022/09/22 05:07:34;;;;;;;6.20;1.15;;;13.90;63.70;;;;;;5054105;28;20572;-68
2022/09/22 05:10:01;;;;;;;1.73;1.02;;;13.90;64.10;;;;;;5053801;28;20029;-73
2022/09/22 05:12:27;;;;;;;3.03;1.00;;;13.90;64.70;;;;;;5053772;28;20100;-68
2022/09/22 05:14:53;;;;;;;2.70;1.05;;;13.90;64.40;;;;;;5053900;28;20057;-68
2022/09/22 05:17:19;;;;;;;5.10;1.08;;;13.90;64.00;;;;;;5053753;28;20057;-68
2022/09/22 05:19:45;;;;;;;2.60;1.27;;;13.90;64.00;;;;;;5053438;28;20028;-68
2022/09/22 05:22:11;;;;;;;5.40;1.08;;;13.90;63.70;;;;;;5053262;28;20399;-68
2022/09/22 05:24:37;;;;;;;1.65;0.75;;;13.90;63.40;;;;;;5052085;28;20025;-68
2022/09/22 05:27:04;;;;;;;1.75;0.98;;;13.90;63.60;;;;;;5053415;28;20112;-68
2022/09/22 05:29:29;;;;;;;4.20;1.08;;;13.90;64.10;;;;;;5051982;28;20040;-68
2022/09/22 05:31:55;;;;;;;2.85;1.33;;;13.90;63.90;;;;;;5051253;28;20025;-68
2022/09/22 05:34:21;;;;;;;6.55;1.23;;;13.90;64.20;;;;;;5050507;28;20030;-68
2022/09/22 05:36:46;;;;;;;1.40;0.88;;;13.80;64.40;;;;;;5053561;28;20116;-73
2022/09/22 05:39:12;;;;;;;2.78;0.90;;;13.80;64.80;;;;;;5052832;28;20028;-68
2022/09/22 05:41:38;;;;;;;2.20;0.93;;;13.90;64.10;;;;;;5053172;28;20059;-66
2022/09/22 05:44:04;;;;;;;2.45;1.10;;;13.90;64.40;;;;;;5052653;28;20091;-67
2022/09/22 05:46:29;;;;;;;5.32;1.23;;;13.90;64.20;;;;;;5052773;28;20036;-66
2022/09/22 05:48:55;;;;;;;2.38;1.00;;;13.90;64.10;;;;;;5052769;28;20025;-67
2022/09/22 05:51:21;;;;;;;3.83;1.00;;;13.90;64.20;;;;;;5052766;28;20044;-67
2022/09/22 05:53:46;;;;;;;2.83;0.90;;;13.90;63.60;;;;;;5052599;28;20025;-67
2022/09/22 05:56:12;;;;;;;1.60;0.80;;;13.90;62.80;;;;;;5052855;28;20033;-66
2022/09/22 05:58:38;;;;;;;3.22;1.00;;;14.00;63.50;;;;;;5052566;28;20456;-67
2022/09/22 06:01:03;;;;;;;4.22;1.27;;;14.00;64.20;;;;;;5052982;28;20037;-72
2022/09/22 06:03:29;;;;;;;2.05;1.05;;;14.00;63.60;;;;;;5052648;28;20021;-66
2022/09/22 06:05:55;;;;;;;1.50;0.77;;;14.00;63.50;;;;;;5051564;28;20029;-66
2022/09/22 06:08:21;;;;;;;1.65;0.90;;;14.10;63.40;;;;;;5049876;28;20087;-66
2022/09/22 06:10:50;;;;;;;5.38;1.02;;;14.10;63.60;;;;;;5051580;28;20041;-68
2022/09/22 06:13:16;;;;;;;3.13;0.77;;;14.10;62.80;;;;;;5051550;28;20025;-71
2022/09/22 06:15:46;;;;;;;4.80;0.73;;;14.10;62.50;;;;;;5052269;28;20386;-72
2022/09/22 06:18:12;;;;;;;1.85;0.85;;;14.10;62.10;;;;;;5052020;28;20021;-66
2022/09/22 06:20:38;;;;;;;3.20;1.05;;;14.10;63.20;;;;;;5042565;28;20061;-66
2022/09/22 06:23:03;;;;;;;4.65;0.80;;;14.20;62.70;;;;;;5032043;28;20507;-66
2022/09/22 06:25:30;;;;;;;5.97;1.23;;;14.20;62.40;;;;;;5032229;28;20026;-66
2022/09/22 06:28:05;;;;;;;3.15;1.30;;;14.20;62.40;;;;;;5032476;28;20108;-66
2022/09/22 06:30:31;;;;;;;2.70;0.70;;;14.30;62.60;;;;;;5031623;28;20440;-72
2022/09/22 06:32:58;;;;;;;2.17;1.00;;;14.30;62.30;;;;;;5032138;28;20097;-71
2022/09/22 06:35:24;;;;;;;1.40;0.90;;;14.30;62.80;;;;;;5031853;28;20025;-72
2022/09/22 06:37:59;;;;;;;4.18;0.90;;;14.40;62.30;;;;;;5031712;28;20387;-67
2022/09/22 06:40:25;;;;;;;2.45;1.15;;;14.40;61.70;;;;;;5031789;28;20101;-71
2022/09/22 06:43:10;;;;;;;3.17;0.93;;;14.50;60.90;;;;;;5025146;28;20045;-72
2022/09/22 06:45:39;;;;;;;8.23;1.20;;;14.50;61.20;;;;;;5031992;28;20036;-72
2022/09/22 06:48:06;;;;;;;6.43;1.30;;;14.50;61.00;;;;;;5031454;28;20025;-68
2022/09/22 06:50:31;;;;;;;6.90;0.90;;;14.50;61.00;;;;;;5031524;28;20042;-67
2022/09/22 06:53:02;;;;;;;2.97;0.95;;;14.60;60.80;;;;;;5032181;28;20025;-67
2022/09/22 06:55:28;;;;;;;6.10;0.98;;;14.60;60.60;;;;;;5032147;28;20030;-66
2022/09/22 06:57:58;;;;;;;2.25;0.80;;;14.70;60.60;;;;;;5031717;28;20029;-71
2022/09/22 07:00:29;;;;;;;5.47;1.00;;;14.70;60.40;;;;;;5031884;28;20112;-73
2022/09/22 07:03:16;;;;;;;3.55;0.90;;;14.70;60.00;;;;;;5031726;28;20160;-74
2022/09/22 07:06:00;;;;;;;5.07;1.05;;;14.80;59.90;;;;;;5031945;28;20014;-72
2022/09/22 07:08:28;;;;;;;7.25;1.00;;;14.80;60.00;;;;;;5032318;28;20022;-76
2022/09/22 07:10:55;;;;;;;4.10;0.90;;;14.80;60.10;;;;;;5031634;28;20499;-68
2022/09/22 07:13:22;;;;;;;4.22;0.80;;;14.90;60.00;;;;;;5031076;28;20120;-68
2022/09/22 07:15:48;;;;;;;5.22;1.10;;;14.90;60.50;;;;;;5030995;28;20438;-68
2022/09/22 07:18:14;;;;;;;2.45;0.90;;;15.00;60.70;;;;;;5031338;28;20034;-69
2022/09/22 07:20:40;;;;;;;2.58;1.00;;;15.00;60.80;;;;;;5031358;28;20030;-75
2022/09/22 07:23:20;;;;;;;2.45;0.80;;;15.10;60.30;;;;;;5031278;28;20032;-72
2022/09/22 07:25:59;;;;;;;3.47;1.10;;;15.20;60.40;;;;;;5034845;28;20065;-67
2022/09/22 07:28:27;;;;;;;2.45;1.08;;;15.20;59.80;;;;;;5035247;28;20028;-70
2022/09/22 07:30:56;;;;;;;1.10;0.60;;;15.30;59.40;;;;;;5034905;28;20079;-68
2022/09/22 07:33:23;;;;;;;3.53;1.10;;;15.30;58.90;;;;;;5035482;28;20427;-67
2022/09/22 07:35:58;;;;;;;4.70;0.93;;;15.30;58.20;;;;;;5034642;28;20029;-68
2022/09/22 07:38:32;;;;;;;1.90;0.80;;;15.40;57.90;;;;;;5034531;28;20116;-68
2022/09/22 07:41:00;;;;;;;2.17;0.90;;;15.40;57.10;;;;;;5035434;28;20593;-68
2022/09/22 07:43:27;;;;;;;5.25;1.00;;;15.50;56.90;;;;;;5035692;28;20036;-68
2022/09/22 07:45:56;;;;;;;1.23;0.65;;;15.60;56.90;;;;;;5035290;28;20170;-68
2022/09/22 07:48:35;;;;;;;3.13;0.80;;;15.60;56.90;;;;;;5035002;28;20022;-68
2022/09/22 07:51:01;;;;;;;1.30;0.70;;;15.70;56.50;;;;;;5035133;28;20053;-68
2022/09/22 07:53:27;;;;;;;1.38;0.70;;;15.70;56.00;;;;;;5035534;28;20044;-67
2022/09/22 07:55:53;;;;;;;2.80;0.70;;;15.80;55.70;;;;;;5035977;28;20108;-68
2022/09/22 07:58:20;;;;;;;3.30;0.60;;;15.80;55.60;;;;;;5035360;28;20537;-69
2022/09/22 08:00:45;;;;;;;3.92;0.80;;;15.90;55.70;;;;;;5035457;28;20013;-76
2022/09/22 08:03:11;;;;;;;2.45;0.73;;;15.90;55.90;;;;;;5035301;28;20471;-70
2022/09/22 08:05:38;;;;;;;4.47;0.70;;;16.00;56.00;;;;;;5035173;28;20056;-75
2022/09/22 08:08:04;;;;;;;1.35;0.50;;;16.10;55.70;;;;;;5035426;28;20030;-68
2022/09/22 08:10:32;;;;;;;2.63;0.90;;;16.20;55.30;;;;;;5034933;28;20033;-67
2022/09/22 08:12:59;;;;;;;1.33;0.70;;;16.20;55.30;;;;;;5034676;28;20049;-68
2022/09/22 08:15:25;;;;;;;1.80;0.70;;;16.30;54.70;;;;;;5034681;28;20029;-71
2022/09/22 08:17:56;;;;;;;1.73;0.70;;;16.30;54.10;;;;;;5034781;28;20021;-75
2022/09/22 08:20:24;;;;;;;1.45;0.60;;;16.40;54.90;;;;;;5034865;28;20032;-68
2022/09/22 08:22:53;;;;;;;3.80;0.80;;;16.40;55.10;;;;;;5034657;28;20021;-73
2022/09/22 08:25:18;;;;;;;2.45;0.73;;;16.40;55.20;;;;;;5034356;28;20036;-68
2022/09/22 08:27:44;;;;;;;2.42;0.60;;;16.50;54.80;;;;;;5034201;28;20189;-67
2022/09/22 08:30:10;;;;;;;0.98;0.60;;;16.60;54.60;;;;;;5034757;28;20044;-68
2022/09/22 08:32:37;;;;;;;6.72;0.85;;;16.70;54.50;;;;;;5034453;28;20022;-68
2022/09/22 08:35:03;;;;;;;1.08;0.70;;;16.70;54.30;;;;;;5034268;28;20026;-67
2022/09/22 08:37:31;;;;;;;1.60;0.82;;;16.70;54.10;;;;;;5034255;28;20013;-68
2022/09/22 08:39:57;;;;;;;1.42;0.90;;;16.80;54.00;;;;;;5034784;28;20096;-68
2022/09/22 08:42:27;;;;;;;3.90;0.70;;;16.90;54.00;;;;;;5034740;28;20364;-67
2022/09/22 08:45:02;;;;;;;1.30;0.85;;;16.90;54.50;;;;;;5034551;28;20396;-68
2022/09/22 08:53:22;;;;;;;4.22;0.70;;;17.00;52.40;;;;;;5034297;28;20036;-69
2022/09/22 08:55:56;;;;;;;1.33;0.52;;;17.10;53.10;;;;;;5034027;28;20048;-68
2022/09/22 08:58:26;;;;;;;2.55;0.80;;;17.10;53.40;;;;;;5034348;28;20128;-68
2022/09/22 09:01:13;;;;;;;2.05;0.75;;;17.20;53.20;;;;;;5034262;28;20087;-68
2022/09/22 09:03:53;;;;;;;1.05;0.38;;;17.30;52.60;;;;;;5033149;28;20037;-68
2022/09/22 09:06:22;;;;;;;1.75;0.63;;;17.30;50.20;;;;;;5034287;28;20021;-68
2022/09/22 09:08:54;;;;;;;3.40;0.50;;;17.40;50.40;;;;;;5034315;28;20036;-68
2022/09/22 09:11:32;;;;;;;0.70;0.40;;;17.40;49.30;;;;;;5034229;28;20393;-75
2022/09/22 09:14:30;;;;;;;0.63;0.40;;;17.50;49.80;;;;;;5033775;28;20033;-74
2022/09/22 09:17:07;;;;;;;1.23;0.40;;;17.50;50.30;;;;;;5031891;28;20379;-68
2022/09/22 09:19:41;;;;;;;0.52;0.35;;;17.60;49.70;;;;;;5033281;28;20025;-67
2022/09/22 09:22:34;;;;;;;0.70;0.35;;;17.60;48.90;;;;;;5033852;28;20018;-68
2022/09/22 09:25:38;;;;;;;1.15;0.43;;;17.70;47.70;;;;;;5033041;28;20062;-68
2022/09/22 09:28:13;;;;;;;0.88;0.40;;;17.70;48.50;;;;;;5031646;28;20054;-68
2022/09/22 09:30:51;;;;;;;0.70;0.30;;;17.70;48.60;;;;;;5031049;28;20272;-70
2022/09/22 09:33:22;;;;;;;0.77;0.43;;;17.70;47.90;;;;;;5031858;28;20545;-66
2022/09/22 09:35:52;;;;;;;0.52;0.30;;;17.70;47.50;;;;;;5032208;28;20549;-71
2022/09/22 09:38:28;;;;;;;1.85;0.40;;;17.80;48.00;;;;;;5031047;28;20026;-69
2022/09/22 09:41:16;;;;;;;1.20;0.50;;;17.80;47.80;;;;;;5032951;28;20471;-68
2022/09/22 09:43:44;;;;;;;0.60;0.30;;;17.90;48.60;;;;;;5033152;28;20022;-70
2022/09/22 09:46:58;;;;;;;1.77;0.43;;;17.90;48.60;;;;;;5033494;28;20057;-68
2022/09/22 09:49:23;;;;;;;0.55;0.40;;;18.00;47.40;;;;;;5024225;28;20388;-68
2022/09/22 09:51:56;;;;;;;2.33;0.60;;;18.00;47.50;;;;;;5032734;28;20045;-68
2022/09/22 09:54:22;;;;;;;1.85;0.55;;;18.10;46.60;;;;;;5032144;28;20049;-67
2022/09/22 09:57:20;;;;;;;1.30;0.50;;;18.10;46.50;;;;;;5033312;28;20026;-68
2022/09/22 10:02:34;;;;;;;0.38;0.30;;;18.10;47.30;;;;;;5033077;28;20036;-69
2022/09/22 10:05:00;;;;;;;1.17;0.50;;;18.20;47.70;;;;;;5033060;28;20131;-74
2022/09/22 10:07:47;;;;;;;0.93;0.45;;;18.20;47.70;;;;;;5033337;28;20053;-73
2022/09/22 10:10:27;;;;;;;0.43;0.40;;;18.30;47.80;;;;;;5032980;28;20480;-74
2022/09/22 10:13:03;;;;;;;0.60;0.30;;;18.40;47.20;;;;;;5033298;28;20488;-68
2022/09/22 10:15:31;;;;;;;1.23;0.40;;;18.40;47.40;;;;;;5033069;28;20423;-74
2022/09/22 10:17:57;;;;;;;0.52;0.30;;;18.50;47.00;;;;;;5032921;28;20455;-71
2022/09/22 10:20:27;;;;;;;1.55;0.60;;;18.50;46.60;;;;;;5032745;28;20106;-73
2022/09/22 10:22:53;;;;;;;0.93;0.45;;;18.60;45.90;;;;;;5032559;28;20068;-73
2022/09/22 10:25:31;;;;;;;0.90;0.40;;;18.60;46.40;;;;;;5032745;28;20129;-74
2022/09/22 10:28:13;;;;;;;1.95;0.40;;;18.70;45.90;;;;;;5032853;28;20029;-74
2022/09/22 10:30:41;;;;;;;1.40;0.52;;;18.70;46.00;;;;;;5032881;28;20041;-74
2022/09/22 10:33:19;;;;;;;3.55;0.40;;;18.70;46.10;;;;;;5032679;28;20026;-74
2022/09/22 10:36:07;;;;;;;2.88;0.70;;;18.80;46.70;;;;;;5032032;28;20022;-68
2022/09/22 10:38:38;;;;;;;0.70;0.50;;;18.90;46.50;;;;;;5032072;28;20052;-68
2022/09/22 10:41:16;;;;;;;1.05;0.50;;;18.90;46.30;;;;;;5032212;28;20511;-68
2022/09/22 10:44:10;;;;;;;2.00;0.50;;;19.00;45.50;;;;;;5032338;28;20021;-71
2022/09/22 10:47:11;;;;;;;0.98;0.40;;;19.00;45.60;;;;;;5032050;28;20480;-68
2022/09/22 10:50:05;;;;;;;2.15;0.55;;;19.00;45.40;;;;;;4989789;28;20532;-70
2022/09/22 10:52:51;;;;;;;1.60;0.40;;;19.10;44.00;;;;;;4993401;28;20527;-71
2022/09/22 10:55:31;;;;;;;0.50;0.40;;;19.00;44.20;;;;;;5031773;28;20353;-68
2022/09/22 10:58:03;;;;;;;2.30;0.50;;;19.00;44.40;;;;;;5031274;28;20384;-70
2022/09/22 11:00:35;;;;;;;1.00;0.30;;;19.10;45.20;;;;;;5036261;28;20360;-72
2022/09/22 11:03:16;;;;;;;0.70;0.43;;;19.10;44.90;;;;;;5036328;28;20036;-73
2022/09/22 11:14:41;;;;;;;0.65;0.40;;;19.30;44.60;;;;;;5036405;28;20041;-67
2022/09/22 11:17:25;;;;;;;0.50;0.45;;;19.30;44.40;;;;;;5036123;28;20029;-68
2022/09/22 11:19:57;;;;;;;2.72;0.63;;;19.40;44.60;;;;;;5049775;28;20112;-69
2022/09/22 11:22:44;;;;;;;7.97;0.60;;;19.40;43.60;;;;;;5055757;28;20116;-68
2022/09/22 11:25:21;;;;;;;2.28;0.32;;;19.40;44.30;;;;;;5055817;28;20029;-66
2022/09/22 11:28:08;;;;;;;1.58;0.52;;;19.50;44.60;;;;;;5051859;28;20025;-68
2022/09/22 11:30:51;;;;;;;4.38;0.70;;;19.60;44.40;;;;;;5049935;28;20095;-69
2022/09/22 11:34:00;;;;;;;0.40;0.40;;;19.60;44.10;;;;;;5053375;28;20044;-68
2022/09/22 11:36:38;;;;;;;0.60;0.47;;;19.70;44.60;;;;;;5055253;28;20021;-67
2022/09/22 11:39:16;;;;;;;1.55;0.50;;;19.80;44.90;;;;;;5055429;28;20462;-68
2022/09/22 11:41:57;;;;;;;0.82;0.60;;;19.80;44.90;;;;;;5055784;28;20082;-71
2022/09/22 11:44:25;;;;;;;0.43;0.40;;;19.90;43.10;;;;;;5055179;28;20075;-68
2022/09/22 11:47:39;;;;;;;0.93;0.28;;;19.80;42.90;;;;;;5055159;28;20025;-72
2022/09/22 11:50:10;;;;;;;1.33;0.55;;;19.80;43.60;;;;;;5051710;28;20052;-68
2022/09/22 11:53:07;;;;;;;0.60;0.40;;;19.80;43.50;;;;;;5055286;28;20033;-68
2022/09/22 11:55:42;;;;;;;1.60;0.50;;;19.90;43.30;;;;;;5055418;28;20479;-68
2022/09/22 11:58:16;;;;;;;0.70;0.70;;;19.90;43.60;;;;;;5055178;28;20449;-70
2022/09/22 12:00:49;;;;;;;3.35;0.60;;;20.00;43.60;;;;;;5055410;28;20057;-72
2022/09/22 12:03:38;;;;;;;0.50;0.40;;;20.00;43.30;;;;;;5055209;28;20028;-67
2022/09/22 12:06:09;;;;;;;1.15;0.50;;;20.10;43.30;;;;;;5054674;28;20067;-67
2022/09/22 12:08:52;;;;;;;0.60;0.50;;;20.20;43.40;;;;;;5055435;28;20025;-68
2022/09/22 12:11:19;;;;;;;0.63;0.40;;;20.20;43.30;;;;;;5054560;28;20118;-67
2022/09/22 12:13:52;;;;;;;0.60;0.40;;;20.30;43.90;;;;;;5054794;28;20029;-68
2022/09/22 12:16:30;;;;;;;1.05;0.50;;;20.30;43.20;;;;;;5055102;28;20027;-68
2022/09/22 12:19:14;;;;;;;1.25;0.43;;;20.40;41.80;;;;;;5051696;28;20025;-69
2022/09/22 12:21:51;;;;;;;1.02;0.50;;;20.40;42.30;;;;;;5043398;28;20037;-68
2022/09/22 12:24:17;;;;;;;1.38;0.60;;;20.40;42.10;;;;;;5024389;28;20021;-69
2022/09/22 12:26:46;;;;;;;0.95;0.50;;;20.50;42.20;;;;;;5040617;28;20034;-68
2022/09/22 12:29:17;;;;;;;1.27;0.50;;;20.50;42.20;;;;;;5054164;28;20025;-68
2022/09/22 12:31:47;;;;;;;1.02;0.45;;;20.50;42.10;;;;;;5046458;28;20514;-69
2022/09/22 12:34:21;;;;;;;6.05;0.57;;;20.50;42.00;;;;;;5053412;28;20029;-73
2022/09/22 12:36:50;;;;;;;0.77;0.60;;;20.60;41.90;;;;;;5053969;28;20024;-74
2022/09/22 12:39:21;;;;;;;0.85;0.40;;;20.70;42.00;;;;;;5054573;28;20025;-68
2022/09/22 12:42:05;;;;;;;1.42;0.52;;;20.70;41.80;;;;;;5054196;28;20387;-68
2022/09/22 12:44:43;;;;;;;0.50;0.40;;;20.70;41.80;;;;;;5037898;28;20475;-68
2022/09/22 12:47:24;;;;;;;1.05;0.60;;;20.80;41.80;;;;;;5028316;28;20384;-68
2022/09/22 12:49:57;;;;;;;0.68;0.47;;;20.80;41.60;;;;;;5034386;28;20037;-68
2022/09/22 12:52:53;;;;;;;2.55;0.60;;;20.80;41.00;;;;;;5034721;28;20116;-68
2022/09/22 12:55:37;;;;;;;1.02;0.60;;;20.80;41.80;;;;;;5029868;28;20163;-68
2022/09/22 12:58:23;;;;;;;1.35;0.50;;;20.80;41.50;;;;;;5034185;28;20030;-67
2022/09/22 13:00:54;;;;;;;0.88;0.45;;;20.70;41.40;;;;;;5034358;28;20085;-68
2022/09/22 13:03:25;;;;;;;0.73;0.50;;;20.70;41.90;;;;;;5034716;28;20034;-68
2022/09/22 13:05:55;;;;;;;0.52;0.40;;;20.80;41.60;;;;;;5034237;28;20032;-68
2022/09/22 13:08:41;;;;;;;3.10;0.60;;;20.80;41.50;;;;;;5034486;28;20033;-67
2022/09/22 13:11:08;;;;;;;0.70;0.40;;;20.90;41.50;;;;;;5033716;28;20427;-68
2022/09/22 13:13:35;;;;;;;1.10;0.32;;;20.80;41.10;;;;;;5034056;28;20423;-68
2022/09/22 13:16:23;;;;;;;3.70;0.50;;;20.90;40.70;;;;;;5034277;28;20033;-68
2022/09/22 13:18:55;;;;;;;1.17;0.40;;;20.90;41.00;;;;;;5034044;28;20021;-70
2022/09/22 13:21:24;;;;;;;1.03;0.50;;;20.80;40.90;;;;;;5033824;28;20472;-68
2022/09/22 13:23:53;;;;;;;1.27;0.40;;;20.90;40.80;;;;;;5033237;28;20711;-68
2022/09/22 13:26:33;;;;;;;0.95;0.50;;;20.80;40.20;;;;;;5033970;28;20017;-70
2022/09/22 13:28:59;;;;;;;0.47;0.40;;;20.80;40.50;;;;;;5033628;28;20029;-72
2022/09/22 13:31:25;;;;;;;1.40;0.70;;;20.80;40.10;;;;;;5033739;28;20052;-67
2022/09/22 13:33:51;;;;;;;0.93;0.60;;;20.80;39.50;;;;;;5033959;28;20431;-73